createdAt,value
2019-04-04T00:11:57.909Z,20.53
2019-04-04T00:14:56.653Z,18.70
2019-04-04T00:17:31.200Z,20.37
2019-04-04T00:20:17.511Z,21.77
2019-04-04T00:22:51.827Z,20.67
2019-04-04T00:25:26.142Z,19.83
2019-04-04T00:28:00.116Z,18.70
2019-04-04T00:30:34.600Z,20.70
2019-04-04T00:33:20.513Z,20.07
2019-04-04T00:36:07.154Z,22.40
2019-04-04T00:38:40.855Z,22.37
2019-04-04T00:41:28.798Z,22.57
2019-04-04T00:44:03.061Z,22.80
2019-04-04T00:46:37.351Z,23.77
2019-04-04T00:49:11.638Z,21.03
2019-04-04T00:51:45.576Z,26.13
2019-04-04T00:54:37.048Z,23.00
2019-04-04T00:57:10.463Z,28.27
2019-04-04T00:59:56.689Z,25.33
2019-04-04T01:02:30.954Z,23.33
2019-04-04T01:05:04.944Z,24.43
2019-04-04T01:07:50.819Z,30.70
2019-04-04T01:20:59.468Z,24.83
2019-04-04T01:23:33.556Z,24.83
2019-04-04T01:36:49.340Z,22.97
2019-04-04T01:39:23.417Z,28.83
2019-04-04T01:41:57.775Z,26.70
2019-04-04T01:44:31.002Z,25.30
2019-04-04T01:47:07.109Z,31.70
2019-04-04T01:49:41.467Z,30.30
2019-04-04T01:52:15.430Z,27.37
2019-04-04T01:55:18.946Z,26.93
2019-04-04T01:58:07.915Z,28.23
2019-04-04T02:00:44.013Z,27.50
2019-04-04T02:03:18.879Z,32.93
2019-04-04T02:05:52.445Z,31.97
2019-04-04T02:08:25.606Z,32.23
2019-04-04T02:10:59.960Z,32.00
2019-04-04T02:13:45.291Z,34.53
2019-04-04T02:19:38.181Z,34.43
2019-04-04T02:22:32.951Z,34.30
2019-04-04T02:25:27.529Z,33.63
2019-04-04T02:44:05.557Z,38.20
2019-04-04T02:46:44.266Z,35.30
2019-04-04T03:02:49.243Z,41.30
2019-04-04T03:05:23.446Z,44.00
2019-04-04T03:07:57.331Z,43.67
2019-04-04T03:21:23.468Z,41.20
2019-04-04T03:24:05.933Z,35.17
2019-04-04T03:26:55.239Z,35.90
2019-04-04T03:29:46.748Z,36.40
2019-04-04T03:32:20.794Z,38.43
2019-04-04T03:34:54.689Z,38.10
2019-04-04T03:58:44.741Z,36.20
2019-04-04T04:01:19.327Z,38.77
2019-04-04T04:27:47.110Z,42.43
2019-04-04T04:30:20.353Z,40.20
2019-04-04T04:32:57.124Z,40.27
2019-04-04T04:35:29.674Z,41.07
2019-04-04T04:38:14.784Z,37.27
2019-04-04T04:51:37.383Z,38.27
2019-04-04T05:12:53.195Z,39.27
2019-04-04T05:15:43.940Z,39.93
2019-04-04T05:18:32.513Z,43.03
2019-04-04T05:45:44.853Z,63.67
2019-04-04T06:00:15.225Z,70.37
2019-04-04T06:02:48.574Z,71.83
2019-04-04T06:05:22.903Z,64.93
2019-04-04T06:27:52.449Z,58.73
2019-04-04T06:34:49.062Z,56.63
2019-04-04T06:37:23.290Z,64.80
2019-04-04T06:39:58.992Z,68.17
2019-04-04T06:42:36.046Z,67.37
2019-04-04T06:45:09.480Z,69.87
2019-04-04T06:47:57.626Z,64.50
2019-04-04T06:50:31.443Z,61.90
2019-04-04T06:53:05.001Z,62.63
2019-04-04T06:55:40.229Z,63.43
2019-04-04T06:58:16.887Z,65.47
2019-04-04T07:01:39.223Z,61.63
2019-04-04T07:04:25.216Z,58.00
2019-04-04T07:07:13.149Z,55.13
2019-04-04T07:09:48.224Z,62.43
2019-04-04T07:12:40.408Z,59.13
2019-04-04T07:15:31.590Z,58.10
2019-04-04T07:18:05.585Z,59.73
2019-04-04T07:20:39.359Z,55.77
2019-04-04T07:23:14.426Z,59.33
2019-04-04T07:25:48.900Z,55.80
2019-04-04T07:28:40.954Z,61.93
2019-04-04T07:31:16.095Z,53.70
2019-04-04T07:33:50.450Z,59.40
2019-04-04T07:36:24.983Z,57.53
2019-04-04T07:39:00.345Z,55.43
2019-04-04T07:41:34.065Z,51.80
2019-04-04T07:44:12.324Z,53.93
2019-04-04T07:46:46.484Z,52.23
2019-04-04T07:49:21.129Z,51.87
2019-04-04T07:52:07.525Z,53.43
2019-04-04T07:54:41.645Z,50.53
2019-04-04T07:57:17.309Z,47.87
2019-04-04T07:59:55.849Z,50.73
2019-04-04T08:02:42.484Z,46.60
2019-04-04T08:05:16.010Z,48.97
2019-04-04T08:07:50.048Z,48.63
2019-04-04T08:10:24.865Z,48.63
2019-04-04T08:12:59.000Z,48.20
2019-04-04T08:15:35.931Z,45.40
2019-04-04T08:18:08.065Z,49.60
2019-04-04T08:20:41.323Z,43.60
2019-04-04T08:23:17.133Z,44.20
2019-04-04T11:19:43.346Z,33.23
2019-04-04T11:22:16.228Z,34.90
2019-04-04T11:24:50.351Z,32.23
2019-04-04T12:38:10.196Z,29.23
2019-04-04T12:40:44.339Z,26.37
2019-04-04T12:43:19.441Z,28.97
2019-04-04T12:45:53.070Z,30.60
2019-04-04T12:48:27.098Z,32.13
2019-04-04T12:51:13.938Z,31.03
2019-04-04T12:53:47.523Z,31.33
2019-04-04T12:56:22.040Z,31.63
2019-04-04T13:30:40.490Z,25.43
2019-04-04T13:33:14.880Z,25.93
2019-04-04T13:46:29.514Z,22.33
2019-04-04T13:49:21.715Z,26.03
2019-04-04T13:51:56.041Z,23.10
2019-04-04T13:54:30.241Z,23.97
2019-04-04T14:07:45.098Z,29.23
2019-04-04T14:10:19.034Z,25.80
2019-04-04T14:12:53.239Z,25.27
2019-04-04T14:15:27.541Z,25.00
2019-04-04T14:18:07.613Z,27.40
2019-04-04T14:31:18.039Z,28.00
2019-04-04T14:44:28.096Z,30.40
2019-04-04T14:47:02.605Z,31.63
2019-04-04T14:49:38.726Z,30.47
2019-04-04T14:52:30.817Z,33.17
2019-04-04T14:55:23.042Z,29.83
2019-04-04T14:57:57.032Z,28.87
2019-04-04T15:00:30.527Z,27.40
2019-04-04T15:03:04.877Z,30.23
2019-04-04T15:05:38.856Z,28.40
2019-04-04T15:08:13.034Z,27.93
2019-04-04T15:10:47.403Z,28.23
2019-04-04T15:13:41.571Z,28.13
2019-04-04T15:16:27.329Z,29.17
2019-04-04T15:19:01.966Z,30.43
2019-04-04T15:21:35.791Z,29.87
2019-04-04T15:24:09.996Z,29.93
2019-04-04T15:42:55.200Z,32.70
2019-04-04T16:56:11.366Z,32.60
2019-04-04T17:09:25.613Z,28.63
2019-04-04T17:12:00.111Z,27.33
2019-04-04T17:14:33.941Z,31.27
2019-04-04T17:17:15.057Z,31.67
2019-04-04T17:19:54.057Z,36.97
2019-04-04T17:22:29.357Z,30.47
2019-04-04T17:25:03.718Z,29.83
2019-04-04T17:27:49.303Z,28.53
2019-04-04T17:30:23.186Z,35.57
2019-04-04T17:32:57.109Z,30.23
2019-04-04T17:35:31.749Z,31.73
2019-04-04T17:38:15.022Z,29.23
2019-04-04T17:40:49.269Z,33.50
2019-04-04T17:43:24.299Z,30.70
2019-04-04T17:45:58.829Z,30.40
2019-04-04T17:48:43.823Z,29.93
2019-04-04T17:51:18.113Z,26.17
2019-04-04T17:54:14.424Z,32.03
2019-04-04T17:56:50.389Z,30.57
2019-04-04T17:59:24.455Z,30.30
2019-04-04T18:02:15.546Z,29.33
2019-04-04T18:04:49.588Z,34.17
2019-04-04T18:07:49.185Z,32.60
2019-04-04T18:10:28.787Z,38.10
2019-04-04T18:13:02.403Z,37.83
2019-04-04T18:15:38.006Z,33.63
2019-04-04T18:18:12.138Z,31.40
2019-04-04T18:20:45.853Z,38.17
2019-04-04T18:23:37.635Z,38.90
2019-04-04T18:26:11.292Z,39.90
2019-04-04T18:29:03.057Z,36.03
2019-04-04T18:31:37.242Z,39.83
2019-04-04T18:34:11.055Z,42.20
2019-04-04T18:36:56.583Z,36.43
2019-04-04T18:39:29.858Z,38.90
2019-04-04T18:42:21.596Z,38.90
2019-04-04T18:45:08.754Z,46.73
2019-04-04T18:47:53.555Z,37.30
2019-04-04T18:50:27.589Z,38.70
2019-04-04T19:03:39.658Z,37.23
2019-04-04T19:17:28.418Z,40.07
2019-04-04T19:20:03.641Z,36.30
2019-04-04T19:23:11.517Z,42.10
2019-04-04T19:29:37.328Z,43.07
2019-04-04T19:32:11.280Z,39.47
2019-04-04T19:34:46.016Z,41.10
2019-04-04T19:38:00.115Z,43.40
2019-04-04T19:40:28.866Z,47.67
2019-04-04T19:43:03.248Z,39.47
2019-04-04T19:45:37.992Z,50.67
2019-04-04T19:48:32.518Z,45.27
2019-04-04T19:51:08.074Z,44.83
2019-04-04T19:53:42.401Z,46.77
2019-04-04T19:56:18.224Z,46.90
2019-04-04T19:58:52.516Z,51.77
2019-04-04T20:01:49.199Z,54.77
2019-04-04T20:04:35.224Z,53.77
2019-04-04T20:07:19.264Z,54.60
2019-04-04T20:09:59.073Z,49.90
2019-04-04T20:12:44.375Z,55.97
2019-04-04T20:15:23.252Z,60.10
2019-04-04T20:18:05.180Z,56.70
2019-04-04T20:20:56.958Z,59.93
2019-04-04T20:23:33.253Z,51.33
2019-04-04T20:26:27.203Z,52.10
2019-04-04T20:29:03.550Z,57.40
2019-04-04T20:31:56.404Z,57.17
2019-04-04T20:34:33.473Z,54.00
2019-04-04T20:37:13.159Z,53.67
2019-04-04T20:40:18.543Z,51.57
2019-04-04T20:42:55.535Z,52.67
2019-04-04T20:45:47.830Z,54.53
2019-04-04T20:48:24.762Z,50.00
2019-04-04T20:51:52.553Z,48.87
2019-04-04T20:54:35.102Z,49.73
2019-04-04T20:57:13.458Z,54.80
2019-04-04T20:59:53.847Z,49.13
2019-04-04T21:02:29.382Z,55.70
2019-04-04T21:05:04.719Z,51.60
2019-04-04T21:07:43.277Z,52.50
2019-04-04T21:10:36.495Z,49.43
2019-04-04T21:13:33.944Z,47.43
2019-04-04T21:22:27.467Z,46.27
2019-04-04T21:24:55.126Z,46.37
2019-04-04T21:27:30.623Z,41.07
2019-04-04T21:30:06.178Z,43.30
2019-04-04T21:32:42.044Z,45.03
2019-04-04T21:35:24.787Z,43.43
2019-04-04T21:38:49.434Z,36.40
2019-04-04T21:41:25.845Z,37.10
2019-04-04T21:44:19.017Z,36.33
2019-04-04T21:46:53.001Z,34.30
2019-04-04T21:49:54.450Z,37.27
2019-04-04T21:52:59.632Z,33.90
2019-04-04T21:56:07.731Z,38.00
2019-04-04T21:58:50.555Z,34.87
2019-04-04T22:01:33.944Z,32.27
2019-04-04T22:21:52.278Z,30.87
2019-04-04T22:24:28.528Z,26.73
2019-04-04T22:27:03.877Z,28.17
2019-04-04T22:29:39.362Z,24.77
2019-04-04T22:32:13.532Z,25.83
2019-04-04T22:35:24.149Z,24.07
2019-04-04T22:37:59.234Z,27.00
2019-04-04T22:40:34.935Z,26.53
2019-04-04T22:43:30.452Z,22.80
2019-04-04T22:50:01.640Z,26.33
2019-04-04T22:52:41.144Z,23.47
2019-04-04T22:55:17.174Z,24.23
2019-04-04T22:57:51.645Z,25.17
2019-04-04T23:00:27.202Z,23.83
2019-04-04T23:03:04.009Z,25.37
2019-04-04T23:05:39.642Z,25.47
2019-04-04T23:08:15.420Z,24.37
2019-04-04T23:12:04.137Z,20.63
2019-04-04T23:14:48.257Z,24.43
2019-04-04T23:17:25.034Z,28.20
2019-04-04T23:19:59.980Z,24.17
2019-04-04T23:22:37.778Z,23.37
2019-04-04T23:25:18.526Z,21.63
2019-04-04T23:27:56.527Z,22.30
2019-04-04T23:30:31.726Z,24.73
2019-04-04T23:33:22.622Z,22.13
2019-04-04T23:37:10.967Z,23.30
2019-04-04T23:40:00.642Z,27.27
2019-04-04T23:42:45.681Z,24.33
2019-04-04T23:45:23.833Z,29.00
2019-04-04T23:47:59.957Z,21.43
2019-04-04T23:50:34.217Z,22.93
2019-04-04T23:53:16.864Z,24.90
2019-04-04T23:55:53.538Z,23.20
2019-04-04T23:58:32.866Z,26.50
